sensor_id;sensor_type;location;lat;lon;timestamp;pressure;altitude;pressure_sealevel;temperature;humidity
57374;BME280;43964;53.890;25.340;2023-02-13T00:01:13;1034.5;;;3;61.3
57374;BME280;43964;53.890;25.340;2023-02-13T00:06:29;1034.5;;;3.1;61.4
57374;BME280;43964;53.890;25.340;2023-02-13T00:11:13;1034.4;;;3.1;61.5
57374;BME280;43964;53.890;25.340;2023-02-13T00:16:49;1034.4;;;3;61.7
57374;BME280;43964;53.890;25.340;2023-02-13T00:21:51;1034.4;;;3;61.9
57374;BME280;43964;53.890;25.340;2023-02-13T00:26:23;1034.4;;;3;62.2
57374;BME280;43964;53.890;25.340;2023-02-13T00:32:03;1034.4;;;3.1;62.4
57374;BME280;43964;53.890;25.340;2023-02-13T00:36:49;1034.4;;;3.1;62.4
57374;BME280;43964;53.890;25.340;2023-02-13T00:41:51;1034.4;;;3.1;62.4
57374;BME280;43964;53.890;25.340;2023-02-13T00:46:13;1034.2;;;3.1;62.6
57374;BME280;43964;53.890;25.340;2023-02-13T00:52:03;1034.2;;;3;63.4
57374;BME280;43964;53.890;25.340;2023-02-13T00:56:27;1034.1;;;3.1;63.4
57374;BME280;43964;53.890;25.340;2023-02-13T01:01:39;1034.1;;;3.2;63.3
57374;BME280;43964;53.890;25.340;2023-02-13T01:06:47;1034.1;;;3.3;63.2
57374;BME280;43964;53.890;25.340;2023-02-13T01:12:05;1034;;;3.3;63.2
57374;BME280;43964;53.890;25.340;2023-02-13T01:17:05;1033.9;;;3.3;63.3
57374;BME280;43964;53.890;25.340;2023-02-13T01:21:37;1033.9;;;3.4;63.7
57374;BME280;43964;53.890;25.340;2023-02-13T01:27:03;1033.9;;;3.5;63.9
57374;BME280;43964;53.890;25.340;2023-02-13T01:31:13;1033.8;;;3.5;64.1
57374;BME280;43964;53.890;25.340;2023-02-13T01:36:49;1033.9;;;3.5;63.6
57374;BME280;43964;53.890;25.340;2023-02-13T01:41:13;1033.9;;;3.4;63.8
57374;BME280;43964;53.890;25.340;2023-02-13T01:46:51;1034;;;3.3;64.1
57374;BME280;43964;53.890;25.340;2023-02-13T01:51:14;1033.9;;;3.2;64
57374;BME280;43964;53.890;25.340;2023-02-13T01:56:52;1033.8;;;3.3;64.6
57374;BME280;43964;53.890;25.340;2023-02-13T02:01:49;1033.8;;;3.4;64.7
57374;BME280;43964;53.890;25.340;2023-02-13T02:07:06;1033.8;;;3.4;64.6
57374;BME280;43964;53.890;25.340;2023-02-13T02:12:06;1033.7;;;3.4;65.1
57374;BME280;43964;53.890;25.340;2023-02-13T02:16:51;1033.6;;;3.5;64.9
57374;BME280;43964;53.890;25.340;2023-02-13T02:22:12;1033.6;;;3.6;65.1
57374;BME280;43964;53.890;25.340;2023-02-13T02:32:47;1033.6;;;3.7;65.3
57374;BME280;43964;53.890;25.340;2023-02-13T02:36:17;1033.5;;;3.7;65.3
57374;BME280;43964;53.890;25.340;2023-02-13T02:41:53;1033.5;;;3.7;65.3
57374;BME280;43964;53.890;25.340;2023-02-13T02:46:44;1033.5;;;3.8;65.3
57374;BME280;43964;53.890;25.340;2023-02-13T02:52:04;1033.5;;;3.8;65.3
57374;BME280;43964;53.890;25.340;2023-02-13T02:56:39;1033.4;;;3.8;65.6
57374;BME280;43964;53.890;25.340;2023-02-13T03:02:05;1033.4;;;3.8;65.7
57374;BME280;43964;53.890;25.340;2023-02-13T03:07:03;1033.3;;;3.9;65.8
57374;BME280;43964;53.890;25.340;2023-02-13T03:11:52;1033.4;;;3.9;65.9
57374;BME280;43964;53.890;25.340;2023-02-13T03:16:25;1033.3;;;4;66
57374;BME280;43964;53.890;25.340;2023-02-13T03:21:29;1033.3;;;4;66.1
57374;BME280;43964;53.890;25.340;2023-02-13T03:26:50;1033.4;;;4;65.8
57374;BME280;43964;53.890;25.340;2023-02-13T03:31:14;1033.5;;;4;66.2
57374;BME280;43964;53.890;25.340;2023-02-13T03:36:40;1033.5;;;4;66
57374;BME280;43964;53.890;25.340;2023-02-13T03:41:48;1033.6;;;4;66
57374;BME280;43964;53.890;25.340;2023-02-13T03:47:05;1033.5;;;3.9;66.3
57374;BME280;43964;53.890;25.340;2023-02-13T03:51:42;1033.4;;;3.9;66.2
57374;BME280;43964;53.890;25.340;2023-02-13T03:56:49;1033.3;;;3.8;66.3
57374;BME280;43964;53.890;25.340;2023-02-13T04:01:42;1033.2;;;3.8;66.5
57374;BME280;43964;53.890;25.340;2023-02-13T04:06:13;1033.1;;;3.9;66.8
57374;BME280;43964;53.890;25.340;2023-02-13T04:11:13;1033.1;;;4;66.8
57374;BME280;43964;53.890;25.340;2023-02-13T04:16:26;1033;;;4;66.6
57374;BME280;43964;53.890;25.340;2023-02-13T04:21:53;1033;;;3.9;66.8
57374;BME280;43964;53.890;25.340;2023-02-13T04:26:14;1032.9;;;3.9;67.1
57374;BME280;43964;53.890;25.340;2023-02-13T04:31:35;1032.9;;;4;67.4
57374;BME280;43964;53.890;25.340;2023-02-13T04:36:25;1032.9;;;4;67.3
57374;BME280;43964;53.890;25.340;2023-02-13T04:42:01;1033;;;4.1;67.3
57374;BME280;43964;53.890;25.340;2023-02-13T04:46:13;1033;;;4.1;67.5
57374;BME280;43964;53.890;25.340;2023-02-13T04:51:47;1033.1;;;4.2;67.2
57374;BME280;43964;53.890;25.340;2023-02-13T04:56:37;1033.1;;;4.1;67.3
57374;BME280;43964;53.890;25.340;2023-02-13T05:01:27;1033;;;4.1;68
57374;BME280;43964;53.890;25.340;2023-02-13T05:06:27;1033;;;4.2;67.9
57374;BME280;43964;53.890;25.340;2023-02-13T05:11:29;1033;;;4.3;67.9
57374;BME280;43964;53.890;25.340;2023-02-13T05:17:01;1033;;;4.3;67.7
57374;BME280;43964;53.890;25.340;2023-02-13T05:22:03;1033.1;;;4.3;67.9
57374;BME280;43964;53.890;25.340;2023-02-13T05:26:23;1033.1;;;4.4;67.9
57374;BME280;43964;53.890;25.340;2023-02-13T05:32:01;1033.1;;;4.5;67.8
57374;BME280;43964;53.890;25.340;2023-02-13T05:37:01;1033;;;4.6;67.8
57374;BME280;43964;53.890;25.340;2023-02-13T05:41:25;1033;;;4.6;67.8
57374;BME280;43964;53.890;25.340;2023-02-13T05:46:13;1032.9;;;4.6;67.8
57374;BME280;43964;53.890;25.340;2023-02-13T05:52:01;1032.8;;;4.6;68.2
57374;BME280;43964;53.890;25.340;2023-02-13T05:56:47;1032.8;;;4.7;68.1
57374;BME280;43964;53.890;25.340;2023-02-13T06:01:37;1032.7;;;4.7;68.2
57374;BME280;43964;53.890;25.340;2023-02-13T06:06:13;1032.7;;;4.7;68.1
57374;BME280;43964;53.890;25.340;2023-02-13T06:11:47;1032.7;;;4.8;68
57374;BME280;43964;53.890;25.340;2023-02-13T06:16:51;1032.8;;;4.7;68
57374;BME280;43964;53.890;25.340;2023-02-13T06:21:35;1033;;;4.6;68.1
57374;BME280;43964;53.890;25.340;2023-02-13T06:27:03;1033;;;4.6;68.3
57374;BME280;43964;53.890;25.340;2023-02-13T06:31:35;1032.9;;;4.6;68.5
57374;BME280;43964;53.890;25.340;2023-02-13T06:36:49;1032.8;;;4.7;68.6
57374;BME280;43964;53.890;25.340;2023-02-13T06:41:25;1033;;;4.8;68.3
57374;BME280;43964;53.890;25.340;2023-02-13T06:46:13;1033;;;4.8;68.3
57374;BME280;43964;53.890;25.340;2023-02-13T06:51:25;1033;;;4.8;68.4
57374;BME280;43964;53.890;25.340;2023-02-13T06:56:39;1033;;;4.9;68.3
57374;BME280;43964;53.890;25.340;2023-02-13T07:01:45;1033;;;5;68.4
57374;BME280;43964;53.890;25.340;2023-02-13T07:06:47;1033;;;5.2;68.3
57374;BME280;43964;53.890;25.340;2023-02-13T07:12:01;1033;;;5.2;68.2
57374;BME280;43964;53.890;25.340;2023-02-13T07:16:33;1033;;;5.2;68.3
57374;BME280;43964;53.890;25.340;2023-02-13T07:21:51;1032.9;;;5.3;68
57374;BME280;43964;53.890;25.340;2023-02-13T07:26:13;1032.9;;;5.3;68
57374;BME280;43964;53.890;25.340;2023-02-13T07:31:45;1032.9;;;5.3;68
57374;BME280;43964;53.890;25.340;2023-02-13T07:36:13;1032.9;;;5.3;68
57374;BME280;43964;53.890;25.340;2023-02-13T07:41:49;1032.9;;;5.4;68.4
57374;BME280;43964;53.890;25.340;2023-02-13T07:46:13;1032.9;;;5.5;68.2
57374;BME280;43964;53.890;25.340;2023-02-13T07:51:47;1032.8;;;5.6;68.2
57374;BME280;43964;53.890;25.340;2023-02-13T07:56:51;1032.8;;;5.8;68.1
57374;BME280;43964;53.890;25.340;2023-02-13T08:02:03;1032.8;;;5.8;68
57374;BME280;43964;53.890;25.340;2023-02-13T08:07:03;1032.8;;;6;67.9
57374;BME280;43964;53.890;25.340;2023-02-13T08:11:51;1032.6;;;6.1;67.8
57374;BME280;43964;53.890;25.340;2023-02-13T08:17:03;1032.5;;;6.2;67.6
57374;BME280;43964;53.890;25.340;2023-02-13T08:21:39;1032.5;;;6.3;67.4
57374;BME280;43964;53.890;25.340;2023-02-13T08:26:37;1032.4;;;6.4;67.3
57374;BME280;43964;53.890;25.340;2023-02-13T08:31:35;1032.4;;;6.5;67.1
57374;BME280;43964;53.890;25.340;2023-02-13T08:36:49;1032.4;;;6.5;66.9
57374;BME280;43964;53.890;25.340;2023-02-13T08:41:23;1032.4;;;6.4;67.1
57374;BME280;43964;53.890;25.340;2023-02-13T08:47:03;1032.4;;;6.4;67.1
57374;BME280;43964;53.890;25.340;2023-02-13T08:51:49;1032.5;;;6.3;67.1
57374;BME280;43964;53.890;25.340;2023-02-13T08:56:59;1032.5;;;6.2;67.1
57374;BME280;43964;53.890;25.340;2023-02-13T09:02:01;1032.6;;;6.1;67.1
57374;BME280;43964;53.890;25.340;2023-02-13T09:07:03;1032.7;;;6.2;67.1
57374;BME280;43964;53.890;25.340;2023-02-13T09:12:03;1032.7;;;6.3;67.1
57374;BME280;43964;53.890;25.340;2023-02-13T09:16:13;1032.8;;;6.3;67.2
57374;BME280;43964;53.890;25.340;2023-02-13T09:21:45;1032.9;;;6.5;67.1
57374;BME280;43964;53.890;25.340;2023-02-13T09:26:25;1032.8;;;6.8;66.8
57374;BME280;43964;53.890;25.340;2023-02-13T09:31:49;1032.9;;;6.9;66.6
57374;BME280;43964;53.890;25.340;2023-02-13T09:36:39;1032.9;;;7;66.5
57374;BME280;43964;53.890;25.340;2023-02-13T09:41:59;1032.9;;;7;66.3
57374;BME280;43964;53.890;25.340;2023-02-13T09:46:51;1032.8;;;7.1;66.2
57374;BME280;43964;53.890;25.340;2023-02-13T09:51:59;1032.8;;;7.1;66.1
57374;BME280;43964;53.890;25.340;2023-02-13T09:56:47;1032.7;;;7.1;65.9
57374;BME280;43964;53.890;25.340;2023-02-13T10:01:38;1032.6;;;7.1;65.8
57374;BME280;43964;53.890;25.340;2023-02-13T10:06:23;1032.6;;;7.2;65.7
57374;BME280;43964;53.890;25.340;2023-02-13T10:11:34;1032.6;;;7.2;65.7
57374;BME280;43964;53.890;25.340;2023-02-13T10:16:48;1032.5;;;7.2;65.7
57374;BME280;43964;53.890;25.340;2023-02-13T10:21:13;1032.5;;;7.3;65.7
57374;BME280;43964;53.890;25.340;2023-02-13T10:26:34;1032.5;;;7.3;65.6
57374;BME280;43964;53.890;25.340;2023-02-13T10:31:14;1032.5;;;7.3;65.5
57374;BME280;43964;53.890;25.340;2023-02-13T10:36:59;1032.5;;;7.3;65.4
57374;BME280;43964;53.890;25.340;2023-02-13T10:41:18;1032.4;;;7.4;65.2
57374;BME280;43964;53.890;25.340;2023-02-13T10:46:45;1032.4;;;7.4;65
57374;BME280;43964;53.890;25.340;2023-02-13T10:51:38;1032.4;;;7.3;64.9
57374;BME280;43964;53.890;25.340;2023-02-13T10:56:16;1032.4;;;7.3;64.9
57374;BME280;43964;53.890;25.340;2023-02-13T11:01:41;1032.3;;;7.3;64.9
57374;BME280;43964;53.890;25.340;2023-02-13T11:06:13;1032.3;;;7.2;64.8
57374;BME280;43964;53.890;25.340;2023-02-13T11:12:08;1032.3;;;7.2;64.8
57374;BME280;43964;53.890;25.340;2023-02-13T11:17:00;1032.2;;;7.2;64.8
57374;BME280;43964;53.890;25.340;2023-02-13T11:21:33;1032.1;;;7.2;64.8
57374;BME280;43964;53.890;25.340;2023-02-13T11:27:01;1032;;;7.1;64.7
57374;BME280;43964;53.890;25.340;2023-02-13T11:32:02;1032;;;7.1;64.7
57374;BME280;43964;53.890;25.340;2023-02-13T11:36:27;1032;;;7.2;64.7
57374;BME280;43964;53.890;25.340;2023-02-13T11:41:28;1032;;;7.2;64.7
57374;BME280;43964;53.890;25.340;2023-02-13T11:46:56;1032;;;7.2;64.7
57374;BME280;43964;53.890;25.340;2023-02-13T11:51:35;1031.9;;;7.1;64.7
57374;BME280;43964;53.890;25.340;2023-02-13T11:56:45;1032;;;7.1;64.6
57374;BME280;43964;53.890;25.340;2023-02-13T12:06:56;1031.8;;;7;64.7
57374;BME280;43964;53.890;25.340;2023-02-13T12:11:47;1031.7;;;7;64.7
57374;BME280;43964;53.890;25.340;2023-02-13T12:16:27;1031.7;;;6.9;64.8
57374;BME280;43964;53.890;25.340;2023-02-13T12:22:05;1031.7;;;7;64.6
57374;BME280;43964;53.890;25.340;2023-02-13T12:27:00;1031.6;;;6.9;64.8
57374;BME280;43964;53.890;25.340;2023-02-13T12:31:29;1031.5;;;6.8;64.9
57374;BME280;43964;53.890;25.340;2023-02-13T12:36:14;1031.4;;;6.9;65
57374;BME280;43964;53.890;25.340;2023-02-13T12:41:48;1031.3;;;7;65
57374;BME280;43964;53.890;25.340;2023-02-13T12:46:26;1031.3;;;7;64.9
57374;BME280;43964;53.890;25.340;2023-02-13T12:51:40;1031.1;;;7;64.9
57374;BME280;43964;53.890;25.340;2023-02-13T12:56:39;1031.1;;;6.9;64.9
57374;BME280;43964;53.890;25.340;2023-02-13T13:02:05;1031.2;;;6.8;65.2
57374;BME280;43964;53.890;25.340;2023-02-13T13:06:57;1031.2;;;6.8;65.2
57374;BME280;43964;53.890;25.340;2023-02-13T13:11:53;1031.3;;;6.8;65.1
57374;BME280;43964;53.890;25.340;2023-02-13T13:17:00;1031.3;;;6.7;65.2
57374;BME280;43964;53.890;25.340;2023-02-13T13:21:38;1031.1;;;6.7;65.1
57374;BME280;43964;53.890;25.340;2023-02-13T13:26:49;1031.1;;;6.7;65.3
57374;BME280;43964;53.890;25.340;2023-02-13T13:31:50;1031.2;;;6.7;65.4
57374;BME280;43964;53.890;25.340;2023-02-13T13:36:39;1031.2;;;6.7;65.3
57374;BME280;43964;53.890;25.340;2023-02-13T13:41:14;1031.3;;;6.6;65.2
57374;BME280;43964;53.890;25.340;2023-02-13T13:46:40;1031.2;;;6.4;65.2
57374;BME280;43964;53.890;25.340;2023-02-13T13:51:47;1031.1;;;6.2;65.6
57374;BME280;43964;53.890;25.340;2023-02-13T13:57:06;1031.1;;;6.1;65.9
57374;BME280;43964;53.890;25.340;2023-02-13T14:02:25;1031.1;;;6.2;66
57374;BME280;43964;53.890;25.340;2023-02-13T14:06:25;1031.1;;;6.3;66
57374;BME280;43964;53.890;25.340;2023-02-13T14:11:57;1031.2;;;6.2;65.8
57374;BME280;43964;53.890;25.340;2023-02-13T14:16:13;1031;;;6.1;66
57374;BME280;43964;53.890;25.340;2023-02-13T14:21:47;1031;;;6.1;66.3
57374;BME280;43964;53.890;25.340;2023-02-13T14:26:40;1030.9;;;6.1;66.2
57374;BME280;43964;53.890;25.340;2023-02-13T14:31:52;1030.9;;;6.1;66.1
57374;BME280;43964;53.890;25.340;2023-02-13T14:36:18;1030.8;;;6;66.3
57374;BME280;43964;53.890;25.340;2023-02-13T14:42:04;1030.8;;;6;66.4
57374;BME280;43964;53.890;25.340;2023-02-13T14:46:49;1030.9;;;6;66.7
57374;BME280;43964;53.890;25.340;2023-02-13T14:52:04;1031;;;6.1;66.5
57374;BME280;43964;53.890;25.340;2023-02-13T14:57:04;1030.9;;;6;66.5
57374;BME280;43964;53.890;25.340;2023-02-13T15:01:46;1030.8;;;6;66.5
57374;BME280;43964;53.890;25.340;2023-02-13T15:07:02;1030.7;;;6;66.7
57374;BME280;43964;53.890;25.340;2023-02-13T15:11:51;1030.9;;;6.1;66.7
57374;BME280;43964;53.890;25.340;2023-02-13T15:16:35;1030.8;;;6.1;66.6
57374;BME280;43964;53.890;25.340;2023-02-13T15:21:13;1030.5;;;6.1;66.5
57374;BME280;43964;53.890;25.340;2023-02-13T15:26:53;1030.6;;;6.1;66.5
57374;BME280;43964;53.890;25.340;2023-02-13T15:31:47;1030.7;;;6.1;66.4
57374;BME280;43964;53.890;25.340;2023-02-13T15:37:03;1030.7;;;6.1;66.5
57374;BME280;43964;53.890;25.340;2023-02-13T15:41:16;1030.9;;;6.1;66.5
57374;BME280;43964;53.890;25.340;2023-02-13T15:47:03;1030.8;;;6.1;66.5
57374;BME280;43964;53.890;25.340;2023-02-13T15:51:28;1030.7;;;6.1;66.5
57374;BME280;43964;53.890;25.340;2023-02-13T15:56:23;1030.8;;;6.1;66.5
57374;BME280;43964;53.890;25.340;2023-02-13T16:01:47;1031;;;6.1;66.5
57374;BME280;43964;53.890;25.340;2023-02-13T16:06:59;1030.9;;;6.1;66.5
57374;BME280;43964;53.890;25.340;2023-02-13T16:11:45;1030.9;;;6.2;66.4
57374;BME280;43964;53.890;25.340;2023-02-13T16:16:41;1031;;;6.2;66.4
57374;BME280;43964;53.890;25.340;2023-02-13T16:21:23;1030.9;;;6.1;66.3
57374;BME280;43964;53.890;25.340;2023-02-13T16:26:40;1030.8;;;6.1;66.3
57374;BME280;43964;53.890;25.340;2023-02-13T16:32:04;1030.9;;;6;66.3
57374;BME280;43964;53.890;25.340;2023-02-13T16:36:37;1031;;;6;66.4
57374;BME280;43964;53.890;25.340;2023-02-13T16:41:51;1030.9;;;6;66.4
57374;BME280;43964;53.890;25.340;2023-02-13T16:46:49;1030.8;;;6;66.5
57374;BME280;43964;53.890;25.340;2023-02-13T16:51:38;1031;;;6;66.5
57374;BME280;43964;53.890;25.340;2023-02-13T16:56:23;1031;;;6;66.5
57374;BME280;43964;53.890;25.340;2023-02-13T17:01:25;1031;;;6;66.4
57374;BME280;43964;53.890;25.340;2023-02-13T17:06:45;1030.8;;;6.1;66.4
57374;BME280;43964;53.890;25.340;2023-02-13T17:11:25;1030.8;;;6;66.3
57374;BME280;43964;53.890;25.340;2023-02-13T17:16:49;1030.9;;;6;66.3
57374;BME280;43964;53.890;25.340;2023-02-13T17:21:25;1031;;;6;66.3
57374;BME280;43964;53.890;25.340;2023-02-13T17:27:01;1031.1;;;6;66.3
57374;BME280;43964;53.890;25.340;2023-02-13T17:31:13;1031;;;6;66.3
57374;BME280;43964;53.890;25.340;2023-02-13T17:36:47;1030.8;;;6;66.3
57374;BME280;43964;53.890;25.340;2023-02-13T17:41:14;1030.8;;;6;66.3
57374;BME280;43964;53.890;25.340;2023-02-13T17:46:21;1030.7;;;6;66.3
57374;BME280;43964;53.890;25.340;2023-02-13T17:51:37;1030.7;;;6;66.3
57374;BME280;43964;53.890;25.340;2023-02-13T17:56:13;1030.7;;;6;66.3
57374;BME280;43964;53.890;25.340;2023-02-13T18:01:59;1030.7;;;6;66.3
57374;BME280;43964;53.890;25.340;2023-02-13T18:06:59;1030.7;;;6;66.3
57374;BME280;43964;53.890;25.340;2023-02-13T18:11:35;1030.7;;;6;66.3
57374;BME280;43964;53.890;25.340;2023-02-13T18:17:03;1030.6;;;5.9;66.3
57374;BME280;43964;53.890;25.340;2023-02-13T18:22:01;1030.6;;;6;66.2
57374;BME280;43964;53.890;25.340;2023-02-13T18:26:13;1030.6;;;6;66.2
57374;BME280;43964;53.890;25.340;2023-02-13T18:31:25;1030.5;;;5.9;66.2
57374;BME280;43964;53.890;25.340;2023-02-13T18:37:01;1030.5;;;5.9;66.2
57374;BME280;43964;53.890;25.340;2023-02-13T18:41:25;1030.5;;;6;66.2
57374;BME280;43964;53.890;25.340;2023-02-13T18:46:27;1030.5;;;5.9;66.2
57374;BME280;43964;53.890;25.340;2023-02-13T18:51:13;1030.6;;;5.9;66.3
57374;BME280;43964;53.890;25.340;2023-02-13T18:56:23;1030.6;;;5.9;66.2
57374;BME280;43964;53.890;25.340;2023-02-13T19:01:23;1030.6;;;5.9;66.2
57374;BME280;43964;53.890;25.340;2023-02-13T19:06:14;1030.5;;;6;66.1
57374;BME280;43964;53.890;25.340;2023-02-13T19:12:01;1030.5;;;6;66.2
57374;BME280;43964;53.890;25.340;2023-02-13T19:16:14;1030.4;;;5.9;66.2
57374;BME280;43964;53.890;25.340;2023-02-13T19:21:49;1030.4;;;5.8;66.2
57374;BME280;43964;53.890;25.340;2023-02-13T19:26:37;1030.4;;;5.8;66.2
57374;BME280;43964;53.890;25.340;2023-02-13T19:31:49;1030.2;;;5.7;66.3
57374;BME280;43964;53.890;25.340;2023-02-13T19:36:33;1030.2;;;5.7;66.4
57374;BME280;43964;53.890;25.340;2023-02-13T19:41:14;1030.3;;;5.6;66.5
57374;BME280;43964;53.890;25.340;2023-02-13T19:46:47;1030.2;;;5.6;66.6
57374;BME280;43964;53.890;25.340;2023-02-13T19:51:15;1030.3;;;5.6;66.7
57374;BME280;43964;53.890;25.340;2023-02-13T19:56:59;1030.3;;;5.6;66.6
57374;BME280;43964;53.890;25.340;2023-02-13T20:01:22;1030.2;;;5.6;66.6
57374;BME280;43964;53.890;25.340;2023-02-13T20:07:01;1030.2;;;5.6;66.6
57374;BME280;43964;53.890;25.340;2023-02-13T20:11:37;1030.2;;;5.6;66.7
57374;BME280;43964;53.890;25.340;2023-02-13T20:17:01;1030.3;;;5.6;66.7
57374;BME280;43964;53.890;25.340;2023-02-13T20:21:33;1030.4;;;5.6;66.7
57374;BME280;43964;53.890;25.340;2023-02-13T20:26:51;1030.3;;;5.7;66.7
57374;BME280;43964;53.890;25.340;2023-02-13T20:31:25;1030.3;;;5.6;66.8
57374;BME280;43964;53.890;25.340;2023-02-13T20:36:49;1030.3;;;5.6;66.9
57374;BME280;43964;53.890;25.340;2023-02-13T20:41:39;1030.3;;;5.5;67
57374;BME280;43964;53.890;25.340;2023-02-13T20:47:02;1030.4;;;5.5;67.1
57374;BME280;43964;53.890;25.340;2023-02-13T20:52:01;1030.4;;;5.5;67.1
57374;BME280;43964;53.890;25.340;2023-02-13T20:56:14;1030.3;;;5.5;67.1
57374;BME280;43964;53.890;25.340;2023-02-13T21:02:01;1030.3;;;5.5;67.1
57374;BME280;43964;53.890;25.340;2023-02-13T21:07:01;1030.3;;;5.5;67.2
57374;BME280;43964;53.890;25.340;2023-02-13T21:11:49;1030.3;;;5.5;67.2
57374;BME280;43964;53.890;25.340;2023-02-13T21:16:28;1030.4;;;5.5;67.2
57374;BME280;43964;53.890;25.340;2023-02-13T21:21:49;1030.4;;;5.5;67.2
57374;BME280;43964;53.890;25.340;2023-02-13T21:26:23;1030.3;;;5.4;67.3
57374;BME280;43964;53.890;25.340;2023-02-13T21:31:47;1030.4;;;5.4;67.4
57374;BME280;43964;53.890;25.340;2023-02-13T21:36:45;1030.4;;;5.5;67.4
57374;BME280;43964;53.890;25.340;2023-02-13T21:42:01;1030.3;;;5.5;67.5
57374;BME280;43964;53.890;25.340;2023-02-13T21:47:01;1030.4;;;5.4;67.6
57374;BME280;43964;53.890;25.340;2023-02-13T21:51:47;1030.4;;;5.4;67.5
57374;BME280;43964;53.890;25.340;2023-02-13T21:57:01;1030.4;;;5.4;67.5
57374;BME280;43964;53.890;25.340;2023-02-13T22:01:26;1030.5;;;5.4;67.5
57374;BME280;43964;53.890;25.340;2023-02-13T22:06:49;1030.5;;;5.4;67.4
57374;BME280;43964;53.890;25.340;2023-02-13T22:11:25;1030.4;;;5.5;67.4
57374;BME280;43964;53.890;25.340;2023-02-13T22:16:37;1030.5;;;5.5;67.3
57374;BME280;43964;53.890;25.340;2023-02-13T22:21:37;1030.5;;;5.5;67.3
57374;BME280;43964;53.890;25.340;2023-02-13T22:27:03;1030.5;;;5.5;67.3
57374;BME280;43964;53.890;25.340;2023-02-13T22:31:37;1030.5;;;5.6;67.3
57374;BME280;43964;53.890;25.340;2023-02-13T22:37:01;1030.5;;;5.5;67.3
57374;BME280;43964;53.890;25.340;2023-02-13T22:41:14;1030.6;;;5.5;67.3
57374;BME280;43964;53.890;25.340;2023-02-13T22:46:14;1030.7;;;5.5;67.3
57374;BME280;43964;53.890;25.340;2023-02-13T22:51:14;1030.7;;;5.5;67.3
57374;BME280;43964;53.890;25.340;2023-02-13T22:56:47;1030.8;;;5.6;67.1
57374;BME280;43964;53.890;25.340;2023-02-13T23:02:01;1030.7;;;5.6;67.1
57374;BME280;43964;53.890;25.340;2023-02-13T23:06:25;1030.7;;;5.7;67
57374;BME280;43964;53.890;25.340;2023-02-13T23:11:37;1030.7;;;5.7;67
57374;BME280;43964;53.890;25.340;2023-02-13T23:16:37;1030.8;;;5.7;66.9
57374;BME280;43964;53.890;25.340;2023-02-13T23:22:03;1030.7;;;5.7;66.9
57374;BME280;43964;53.890;25.340;2023-02-13T23:26:53;1030.6;;;5.7;66.8
57374;BME280;43964;53.890;25.340;2023-02-13T23:31:33;1030.7;;;5.7;66.8
57374;BME280;43964;53.890;25.340;2023-02-13T23:36:39;1030.7;;;5.7;66.7
57374;BME280;43964;53.890;25.340;2023-02-13T23:41:13;1030.8;;;5.6;66.7
57374;BME280;43964;53.890;25.340;2023-02-13T23:46:25;1030.9;;;5.6;66.8
57374;BME280;43964;53.890;25.340;2023-02-13T23:51:23;1030.9;;;5.6;66.8
57374;BME280;43964;53.890;25.340;2023-02-13T23:57:01;1030.8;;;5.6;66.7
